Terminal Aerodrome Forecast
Issued by NWS

Home | Current Version | Previous Version | Text Only | Print | Product List | Glossary Off
Versions: 1 2 3 4 5 6 7 8 9 10 11 12 13 14 15 16 17 18

378
FTUS43 KBIS 041341 AAA
TAFDIK
TAF AMD
KDIK 041341Z 0414/0512 24003KT P6SM SCT250
     FM041800 22008KT P6SM BKN120
     FM050700 27011KT 5SM -SN BR OVC025=

USA.gov is the U.S. government's official web portal to all federal, state and local government web resources and services.